Time;durP1;ratioP1;P1;durP2;ratioP2;P2;SDS_P1;SDS_P2;PMS_P1;PMS_P2;Temp;Humidity;BMP_temperature;BMP_pressure;BME280_temperature;BME280_humidity;BME280_pressure;Samples;Min_cycle;Max_cycle;Signal;HPM_P1;HPM_P2
2023/09/30 00:02:18;;;;;;;8.80;7.30;;;;;;;;;;112648;209;40854;-35
2023/09/30 00:04:52;;;;;;;9.60;8.00;;;;;;;;;;112523;209;175478;-35
2023/09/30 00:07:27;;;;;;;8.80;7.90;;;;;;;;;;112683;209;42061;-35
2023/09/30 00:10:05;;;;;;;9.80;8.10;;;;;;;;;;112576;209;175472;-35
2023/09/30 00:12:41;;;;;;;8.90;8.00;;;;;;;;;;112617;209;42139;-35
2023/09/30 00:15:18;;;;;;;8.70;7.80;;;;;;;;;;112703;209;44094;-35
2023/09/30 00:17:58;;;;;;;8.60;7.60;;;;;;;;;;112576;210;195104;-35
2023/09/30 00:20:35;;;;;;;8.70;7.70;;;;;;;;;;112665;209;38791;-35
2023/09/30 00:23:11;;;;;;;10.20;8.20;;;;;;;;;;112652;209;40825;-35
2023/09/30 00:25:50;;;;;;;8.70;7.70;;;;;;;;;;112671;209;43999;-35
2023/09/30 00:28:28;;;;;;;10.00;8.10;;;;;;;;;;112677;209;42094;-35
2023/09/30 00:31:08;;;;;;;9.00;7.80;;;;;;;;;;112643;209;40007;-35
2023/09/30 00:33:43;;;;;;;8.90;7.90;;;;;;;;;;112623;209;39730;-35
2023/09/30 00:36:18;;;;;;;9.40;8.00;;;;;;;;;;112711;209;44370;-35
2023/09/30 00:38:53;;;;;;;8.90;7.80;;;;;;;;;;112623;209;43305;-35
2023/09/30 00:41:29;;;;;;;9.50;8.40;;;;;;;;;;112670;209;38495;-35
2023/09/30 00:44:10;;;;;;;9.40;8.10;;;;;;;;;;112662;209;39315;-35
2023/09/30 00:46:48;;;;;;;9.20;7.90;;;;;;;;;;112664;209;43098;-36
2023/09/30 00:49:22;;;;;;;9.40;8.30;;;;;;;;;;112664;209;43209;-35
2023/09/30 00:51:59;;;;;;;9.10;8.20;;;;;;;;;;112560;210;38774;-35
2023/09/30 00:54:35;;;;;;;9.40;8.40;;;;;;;;;;112520;209;41140;-35
2023/09/30 00:57:13;;;;;;;9.50;8.40;;;;;;;;;;112602;210;42851;-35
2023/09/30 00:59:50;;;;;;;9.40;8.40;;;;;;;;;;112571;210;42114;-35
2023/09/30 01:02:24;;;;;;;9.20;8.30;;;;;;;;;;112578;210;38797;-35
2023/09/30 01:05:00;;;;;;;8.90;8.00;;;;;;;;;;112450;209;175132;-36
2023/09/30 01:07:37;;;;;;;9.20;8.00;;;;;;;;;;112597;210;44041;-35
2023/09/30 01:10:13;;;;;;;9.20;7.80;;;;;;;;;;112591;210;42079;-35
2023/09/30 01:12:51;;;;;;;9.10;8.10;;;;;;;;;;112521;210;175500;-35
2023/09/30 01:15:31;;;;;;;9.40;8.10;;;;;;;;;;112586;209;39855;-36
2023/09/30 01:18:10;;;;;;;9.00;8.10;;;;;;;;;;112643;210;43897;-35
2023/09/30 01:20:45;;;;;;;9.70;8.40;;;;;;;;;;112576;210;41798;-35
2023/09/30 01:23:19;;;;;;;10.40;8.70;;;;;;;;;;112629;210;40162;-35
2023/09/30 01:25:55;;;;;;;10.40;8.50;;;;;;;;;;112561;209;39680;-35
2023/09/30 01:28:31;;;;;;;8.90;8.00;;;;;;;;;;112544;210;43036;-35
2023/09/30 01:31:10;;;;;;;9.40;8.30;;;;;;;;;;112550;210;42180;-35
2023/09/30 01:33:46;;;;;;;9.60;8.60;;;;;;;;;;112456;209;175548;-35
2023/09/30 01:36:24;;;;;;;10.10;8.70;;;;;;;;;;112525;209;41009;-35
2023/09/30 01:38:58;;;;;;;9.60;8.70;;;;;;;;;;112549;210;42851;-35
2023/09/30 01:41:34;;;;;;;10.10;8.80;;;;;;;;;;112563;209;43640;-36
2023/09/30 01:44:12;;;;;;;9.90;8.90;;;;;;;;;;112579;210;40123;-35
2023/09/30 01:46:46;;;;;;;10.00;8.70;;;;;;;;;;112548;209;46653;-35
2023/09/30 01:49:20;;;;;;;9.70;8.70;;;;;;;;;;112568;210;42796;-35
2023/09/30 01:51:55;;;;;;;9.70;8.70;;;;;;;;;;112548;210;42224;-35
2023/09/30 01:54:35;;;;;;;9.50;8.50;;;;;;;;;;112440;209;175459;-35
2023/09/30 01:57:15;;;;;;;9.20;8.20;;;;;;;;;;112557;209;45208;-35
2023/09/30 01:59:51;;;;;;;9.50;8.60;;;;;;;;;;112567;210;43090;-35
2023/09/30 02:02:28;;;;;;;9.40;8.40;;;;;;;;;;112421;209;175522;-35
2023/09/30 02:05:07;;;;;;;9.40;8.10;;;;;;;;;;112589;209;38474;-35
2023/09/30 02:07:45;;;;;;;9.50;8.50;;;;;;;;;;112566;210;45698;-35
2023/09/30 02:10:22;;;;;;;9.50;8.50;;;;;;;;;;112556;210;43059;-35
2023/09/30 02:12:59;;;;;;;9.30;8.40;;;;;;;;;;112559;210;43627;-35
2023/09/30 02:15:42;;;;;;;10.20;9.20;;;;;;;;;;112529;209;38744;-36
2023/09/30 02:18:16;;;;;;;;;;;;;;;;;;112573;209;39721;-35
2023/09/30 02:20:54;;;;;;;9.30;8.20;;;;;;;;;;112565;210;45084;-35
2023/09/30 02:23:29;;;;;;;9.40;8.40;;;;;;;;;;112450;209;175485;-35
2023/09/30 02:26:03;;;;;;;10.10;9.10;;;;;;;;;;112304;210;38578;-35
2023/09/30 02:28:38;;;;;;;9.80;8.70;;;;;;;;;;112612;209;39688;-35
2023/09/30 02:31:14;;;;;;;9.80;8.80;;;;;;;;;;112647;210;43024;-35
2023/09/30 02:33:48;;;;;;;9.40;8.50;;;;;;;;;;112632;210;41879;-35
2023/09/30 02:36:27;;;;;;;10.20;9.10;;;;;;;;;;112569;209;40008;-35
2023/09/30 02:39:03;;;;;;;10.10;8.80;;;;;;;;;;112671;210;39578;-35
2023/09/30 02:41:41;;;;;;;9.70;8.80;;;;;;;;;;112548;209;175511;-35
2023/09/30 02:44:17;;;;;;;9.90;8.90;;;;;;;;;;112592;210;42072;-35
2023/09/30 02:46:54;;;;;;;9.80;8.80;;;;;;;;;;112272;209;322101;-35
2023/09/30 02:49:29;;;;;;;9.50;8.50;;;;;;;;;;112592;210;39678;-35
2023/09/30 02:52:05;;;;;;;9.80;8.80;;;;;;;;;;112611;210;42797;-35
2023/09/30 02:54:43;;;;;;;9.70;8.70;;;;;;;;;;112572;209;42091;-35
2023/09/30 02:57:22;;;;;;;9.80;8.80;;;;;;;;;;112543;209;38923;-35
2023/09/30 02:59:59;;;;;;;10.00;9.00;;;;;;;;;;112602;209;40853;-35
2023/09/30 03:02:37;;;;;;;9.70;8.70;;;;;;;;;;112591;209;42817;-35
2023/09/30 03:05:13;;;;;;;9.50;8.60;;;;;;;;;;112619;209;42225;-35
2023/09/30 03:07:59;;;;;;;9.90;8.90;;;;;;;;;;112614;209;39124;-35
2023/09/30 03:10:34;;;;;;;9.80;8.70;;;;;;;;;;112574;210;39944;-35
2023/09/30 03:13:11;;;;;;;10.00;9.00;;;;;;;;;;112600;210;44389;-35
2023/09/30 03:15:45;;;;;;;9.90;8.90;;;;;;;;;;112631;209;41785;-35
2023/09/30 03:18:23;;;;;;;9.90;8.90;;;;;;;;;;112572;209;38893;-35
2023/09/30 03:21:15;;;;;;;10.10;9.00;;;;;;;;;;112530;210;39326;-36
2023/09/30 03:23:51;;;;;;;10.00;8.90;;;;;;;;;;112583;209;43347;-35
2023/09/30 03:26:25;;;;;;;10.00;8.80;;;;;;;;;;112601;210;42119;-35
2023/09/30 03:29:05;;;;;;;10.40;9.30;;;;;;;;;;112562;209;38685;-35
2023/09/30 03:31:41;;;;;;;10.30;8.70;;;;;;;;;;112532;210;39715;-35
2023/09/30 03:34:16;;;;;;;9.80;8.80;;;;;;;;;;112607;210;42924;-35
2023/09/30 03:36:51;;;;;;;9.70;8.80;;;;;;;;;;112550;210;41133;-35
2023/09/30 03:39:27;;;;;;;10.00;9.00;;;;;;;;;;112550;209;44494;-37
2023/09/30 03:42:04;;;;;;;9.90;8.90;;;;;;;;;;112560;210;39690;-35
2023/09/30 03:44:42;;;;;;;9.60;8.60;;;;;;;;;;112566;210;42249;-35
2023/09/30 03:47:17;;;;;;;10.50;9.10;;;;;;;;;;112523;209;42245;-35
2023/09/30 03:49:55;;;;;;;10.50;9.40;;;;;;;;;;112529;210;43968;-35
2023/09/30 03:52:29;;;;;;;9.70;8.70;;;;;;;;;;112565;210;40870;-35
2023/09/30 03:55:05;;;;;;;9.90;8.90;;;;;;;;;;112520;210;43003;-35
2023/09/30 03:57:43;;;;;;;10.50;8.80;;;;;;;;;;112583;210;41881;-36
2023/09/30 04:00:24;;;;;;;9.30;8.30;;;;;;;;;;112644;210;45091;-37
2023/09/30 04:02:59;;;;;;;10.80;8.70;;;;;;;;;;112641;210;39121;-36
2023/09/30 04:05:36;;;;;;;9.80;8.50;;;;;;;;;;112700;210;42990;-35
2023/09/30 04:08:12;;;;;;;9.80;8.80;;;;;;;;;;112541;209;42035;-35
2023/09/30 04:10:50;;;;;;;9.40;8.40;;;;;;;;;;112552;210;38720;-35
2023/09/30 04:13:25;;;;;;;10.80;9.00;;;;;;;;;;112564;210;39631;-35
2023/09/30 04:16:01;;;;;;;10.50;9.20;;;;;;;;;;112565;210;42758;-35
2023/09/30 04:18:35;;;;;;;9.90;8.90;;;;;;;;;;112535;210;42252;-36
2023/09/30 04:21:12;;;;;;;10.10;9.00;;;;;;;;;;112585;210;38861;-35
2023/09/30 04:23:46;;;;;;;10.10;9.00;;;;;;;;;;112564;210;39329;-36
2023/09/30 04:26:25;;;;;;;9.20;8.30;;;;;;;;;;112619;210;43262;-36
2023/09/30 04:28:59;;;;;;;9.70;8.70;;;;;;;;;;112562;209;42045;-36
2023/09/30 04:31:35;;;;;;;9.40;8.40;;;;;;;;;;112625;210;38484;-36
2023/09/30 04:34:11;;;;;;;9.40;8.40;;;;;;;;;;112629;210;39897;-36
2023/09/30 04:36:46;;;;;;;9.40;8.40;;;;;;;;;;112599;210;43116;-36
2023/09/30 04:39:22;;;;;;;9.80;8.50;;;;;;;;;;112474;209;175094;-36
2023/09/30 04:41:57;;;;;;;9.20;8.30;;;;;;;;;;112563;210;40203;-35
2023/09/30 04:44:33;;;;;;;9.10;8.20;;;;;;;;;;112585;210;41182;-35
2023/09/30 04:47:10;;;;;;;9.30;8.30;;;;;;;;;;112613;210;43302;-36
2023/09/30 04:49:44;;;;;;;9.50;8.30;;;;;;;;;;112590;209;42094;-36
2023/09/30 04:52:20;;;;;;;9.20;8.10;;;;;;;;;;112622;210;38470;-35
2023/09/30 04:54:54;;;;;;;9.40;8.40;;;;;;;;;;112647;209;39621;-35
2023/09/30 04:57:32;;;;;;;9.30;8.00;;;;;;;;;;112670;209;44011;-36
2023/09/30 05:00:13;;;;;;;9.10;8.20;;;;;;;;;;112615;209;43276;-36
2023/09/30 05:02:49;;;;;;;9.80;8.40;;;;;;;;;;112690;209;40116;-36
2023/09/30 05:05:28;;;;;;;8.90;8.00;;;;;;;;;;112462;209;41050;-36
2023/09/30 05:08:06;;;;;;;8.90;8.00;;;;;;;;;;112046;209;892058;-36
2023/09/30 05:10:40;;;;;;;8.80;7.90;;;;;;;;;;112688;209;42104;-36
2023/09/30 05:13:18;;;;;;;8.90;8.00;;;;;;;;;;112680;209;38733;-36
2023/09/30 05:15:52;;;;;;;9.60;8.10;;;;;;;;;;112718;209;39694;-36
2023/09/30 05:18:32;;;;;;;9.80;8.30;;;;;;;;;;112688;209;44424;-37
2023/09/30 05:21:07;;;;;;;8.80;7.90;;;;;;;;;;112636;209;42030;-36
2023/09/30 05:23:42;;;;;;;8.80;7.80;;;;;;;;;;112655;209;38731;-36
2023/09/30 05:26:20;;;;;;;9.40;8.00;;;;;;;;;;112708;209;40688;-36
2023/09/30 05:28:55;;;;;;;8.90;7.60;;;;;;;;;;112746;209;43781;-36
2023/09/30 05:31:29;;;;;;;8.50;7.70;;;;;;;;;;112683;209;42046;-36
2023/09/30 05:34:06;;;;;;;8.40;7.60;;;;;;;;;;112705;209;39956;-36
2023/09/30 05:36:43;;;;;;;8.70;7.80;;;;;;;;;;112640;209;39670;-36
2023/09/30 05:39:19;;;;;;;8.50;7.50;;;;;;;;;;112661;209;42781;-36
2023/09/30 05:41:55;;;;;;;8.80;7.90;;;;;;;;;;112597;209;43501;-36
2023/09/30 05:44:31;;;;;;;8.30;7.50;;;;;;;;;;112633;209;39982;-36
2023/09/30 05:47:08;;;;;;;8.40;7.60;;;;;;;;;;112577;209;39588;-35
2023/09/30 05:49:43;;;;;;;8.50;7.40;;;;;;;;;;112649;209;43760;-35
2023/09/30 05:52:19;;;;;;;8.70;7.80;;;;;;;;;;112614;209;42457;-35
2023/09/30 05:54:53;;;;;;;8.60;7.60;;;;;;;;;;112558;209;39651;-36
2023/09/30 05:57:28;;;;;;;8.60;7.70;;;;;;;;;;112546;210;39762;-36
2023/09/30 06:00:11;;;;;;;8.50;7.60;;;;;;;;;;112593;210;43006;-36
2023/09/30 06:02:51;;;;;;;8.60;7.70;;;;;;;;;;112556;210;48110;-36
2023/09/30 06:05:32;;;;;;;8.40;7.50;;;;;;;;;;112604;210;39945;-36
2023/09/30 06:08:13;;;;;;;8.80;7.50;;;;;;;;;;112568;209;40920;-36
2023/09/30 06:10:49;;;;;;;8.30;7.30;;;;;;;;;;112563;210;44176;-36
2023/09/30 06:13:27;;;;;;;8.20;7.30;;;;;;;;;;112572;209;42510;-36
2023/09/30 06:16:04;;;;;;;9.00;7.30;;;;;;;;;;112603;210;38751;-36
2023/09/30 06:18:47;;;;;;;8.60;7.60;;;;;;;;;;112619;209;40990;-35
2023/09/30 06:21:22;;;;;;;8.70;7.10;;;;;;;;;;112555;209;44348;-36
2023/09/30 06:23:59;;;;;;;8.10;7.30;;;;;;;;;;112559;210;43561;-36
2023/09/30 06:26:37;;;;;;;8.80;6.80;;;;;;;;;;112573;209;39973;-36
2023/09/30 06:29:12;;;;;;;8.30;7.40;;;;;;;;;;112624;209;40718;-36
2023/09/30 06:31:47;;;;;;;8.30;7.50;;;;;;;;;;112561;209;43031;-36
2023/09/30 06:34:23;;;;;;;7.90;6.60;;;;;;;;;;112632;210;43532;-36
2023/09/30 06:37:05;;;;;;;7.60;6.80;;;;;;;;;;112630;209;38483;-36
2023/09/30 06:39:40;;;;;;;7.60;6.80;;;;;;;;;;112591;209;40997;-35
2023/09/30 06:42:16;;;;;;;7.80;7.00;;;;;;;;;;112557;209;42827;-35
2023/09/30 06:44:55;;;;;;;7.90;7.00;;;;;;;;;;112430;210;41954;-36
2023/09/30 06:47:33;;;;;;;7.70;6.90;;;;;;;;;;112612;210;38719;-36
2023/09/30 06:50:12;;;;;;;7.70;6.90;;;;;;;;;;112547;209;39634;-36
2023/09/30 06:52:49;;;;;;;7.60;6.90;;;;;;;;;;112549;209;42809;-36
2023/09/30 06:55:25;;;;;;;7.60;6.40;;;;;;;;;;112645;209;42670;-36
2023/09/30 06:58:03;;;;;;;8.00;6.90;;;;;;;;;;112597;210;38467;-36
2023/09/30 07:00:38;;;;;;;7.40;6.70;;;;;;;;;;112583;209;39724;-36
2023/09/30 07:03:15;;;;;;;8.00;7.00;;;;;;;;;;112567;209;42809;-36
2023/09/30 07:05:51;;;;;;;7.80;6.70;;;;;;;;;;112565;210;41989;-36
2023/09/30 07:08:30;;;;;;;7.70;6.60;;;;;;;;;;112612;209;40050;-36
2023/09/30 07:11:05;;;;;;;7.50;6.70;;;;;;;;;;112619;209;39943;-36
2023/09/30 07:13:40;;;;;;;7.10;6.40;;;;;;;;;;112578;209;44054;-36
2023/09/30 07:16:15;;;;;;;7.80;6.80;;;;;;;;;;112620;210;42185;-36
2023/09/30 07:18:52;;;;;;;7.10;6.20;;;;;;;;;;112636;210;39959;-36
2023/09/30 07:21:27;;;;;;;7.30;6.60;;;;;;;;;;112581;209;40827;-36
2023/09/30 07:24:06;;;;;;;7.60;6.30;;;;;;;;;;112565;209;42943;-36
2023/09/30 07:26:44;;;;;;;7.40;6.40;;;;;;;;;;112472;210;175508;-36
2023/09/30 07:29:19;;;;;;;7.80;6.70;;;;;;;;;;112521;210;38732;-36
2023/09/30 07:31:56;;;;;;;7.30;6.50;;;;;;;;;;112506;210;39874;-36
2023/09/30 07:34:34;;;;;;;7.20;6.50;;;;;;;;;;112524;209;44164;-36
2023/09/30 07:37:10;;;;;;;8.40;6.60;;;;;;;;;;112561;210;42071;-36
2023/09/30 07:39:45;;;;;;;7.50;6.60;;;;;;;;;;112549;210;38696;-36
2023/09/30 07:42:23;;;;;;;7.50;6.60;;;;;;;;;;112576;210;41081;-37
2023/09/30 07:44:59;;;;;;;8.50;7.10;;;;;;;;;;112532;209;48621;-36
2023/09/30 07:47:33;;;;;;;7.80;6.60;;;;;;;;;;112546;210;42214;-36
2023/09/30 07:50:15;;;;;;;8.30;6.60;;;;;;;;;;112527;210;38938;-36
2023/09/30 07:52:58;;;;;;;7.90;6.70;;;;;;;;;;112526;209;39557;-36
2023/09/30 07:55:33;;;;;;;7.90;6.40;;;;;;;;;;112611;210;48670;-36
2023/09/30 07:58:10;;;;;;;8.00;6.90;;;;;;;;;;112565;210;42080;-36
2023/09/30 08:00:46;;;;;;;8.50;6.70;;;;;;;;;;112590;209;38680;-36
2023/09/30 08:03:20;;;;;;;7.60;6.60;;;;;;;;;;112555;209;39954;-36
2023/09/30 08:05:55;;;;;;;8.00;6.80;;;;;;;;;;112547;210;43566;-36
2023/09/30 08:08:33;;;;;;;8.40;6.70;;;;;;;;;;112559;210;41909;-36
2023/09/30 08:11:08;;;;;;;8.20;7.00;;;;;;;;;;112589;209;40343;-36
2023/09/30 08:13:46;;;;;;;7.50;6.60;;;;;;;;;;112528;209;40994;-36
2023/09/30 08:16:24;;;;;;;8.10;6.90;;;;;;;;;;112563;210;44408;-36
2023/09/30 08:19:01;;;;;;;7.50;6.70;;;;;;;;;;112627;210;43463;-36
2023/09/30 08:21:36;;;;;;;7.30;6.50;;;;;;;;;;112586;210;40056;-37
2023/09/30 08:24:14;;;;;;;8.20;6.70;;;;;;;;;;112605;209;39487;-37
2023/09/30 08:26:55;;;;;;;7.90;6.80;;;;;;;;;;112499;210;175593;-36
2023/09/30 08:29:33;;;;;;;8.00;6.80;;;;;;;;;;112630;210;42230;-36
2023/09/30 08:32:10;;;;;;;7.40;6.40;;;;;;;;;;112632;210;38842;-37
2023/09/30 08:34:46;;;;;;;7.50;6.50;;;;;;;;;;112572;209;41064;-37
2023/09/30 08:37:22;;;;;;;7.40;6.40;;;;;;;;;;112590;210;42550;-36
2023/09/30 08:40:01;;;;;;;8.30;7.00;;;;;;;;;;112629;210;42352;-36
2023/09/30 08:42:37;;;;;;;8.60;7.40;;;;;;;;;;112631;210;38909;-36
2023/09/30 08:45:15;;;;;;;8.00;6.90;;;;;;;;;;112581;209;40817;-36
2023/09/30 08:47:50;;;;;;;7.60;6.80;;;;;;;;;;112633;210;44031;-36
2023/09/30 08:50:27;;;;;;;7.70;6.80;;;;;;;;;;112580;210;42216;-36
2023/09/30 08:53:04;;;;;;;8.80;7.20;;;;;;;;;;112643;210;40185;-36
2023/09/30 08:55:45;;;;;;;8.20;7.00;;;;;;;;;;112429;209;193523;-36
2023/09/30 08:58:21;;;;;;;7.30;6.20;;;;;;;;;;112580;210;43119;-37
2023/09/30 09:00:57;;;;;;;8.80;7.10;;;;;;;;;;112556;210;42022;-36
2023/09/30 09:03:36;;;;;;;7.90;7.10;;;;;;;;;;112617;210;39986;-36
2023/09/30 09:06:10;;;;;;;7.60;6.50;;;;;;;;;;112580;209;40803;-36
2023/09/30 09:08:53;;;;;;;7.80;6.70;;;;;;;;;;112500;210;175546;-36
2023/09/30 09:11:27;;;;;;;7.60;6.80;;;;;;;;;;112621;210;42251;-36
2023/09/30 09:14:04;;;;;;;7.60;6.70;;;;;;;;;;112602;210;38741;-36
2023/09/30 09:16:53;;;;;;;8.60;7.00;;;;;;;;;;112594;209;39512;-36
2023/09/30 09:19:30;;;;;;;7.60;6.70;;;;;;;;;;112664;210;42932;-36
2023/09/30 09:22:07;;;;;;;7.60;6.60;;;;;;;;;;112636;210;41951;-36
2023/09/30 09:24:42;;;;;;;7.90;7.10;;;;;;;;;;112580;210;39125;-36
2023/09/30 09:27:19;;;;;;;7.40;6.50;;;;;;;;;;112625;209;45416;-35
2023/09/30 09:29:57;;;;;;;8.40;7.00;;;;;;;;;;112554;210;42818;-36
2023/09/30 09:32:35;;;;;;;7.50;6.60;;;;;;;;;;112579;210;42025;-36
2023/09/30 09:35:15;;;;;;;7.40;6.50;;;;;;;;;;112600;209;38901;-36
2023/09/30 09:38:02;;;;;;;7.60;6.80;;;;;;;;;;112554;210;46081;-36
2023/09/30 09:40:40;;;;;;;7.70;6.80;;;;;;;;;;112566;210;42756;-36
2023/09/30 09:43:16;;;;;;;8.20;6.70;;;;;;;;;;112646;209;42011;-36
2023/09/30 09:45:51;;;;;;;7.50;6.60;;;;;;;;;;112555;209;38710;-36
2023/09/30 09:48:28;;;;;;;7.60;6.50;;;;;;;;;;112548;209;40780;-36
2023/09/30 09:51:07;;;;;;;7.50;6.70;;;;;;;;;;112561;210;42901;-36
2023/09/30 09:53:42;;;;;;;7.50;6.70;;;;;;;;;;112546;209;41965;-36
2023/09/30 09:56:20;;;;;;;10.20;7.80;;;;;;;;;;112526;209;38707;-36
2023/09/30 09:58:56;;;;;;;8.20;7.10;;;;;;;;;;112557;210;39772;-36
2023/09/30 10:01:34;;;;;;;8.90;7.30;;;;;;;;;;112565;210;42989;-36
2023/09/30 10:04:16;;;;;;;9.00;7.20;;;;;;;;;;112557;210;41790;-36
2023/09/30 10:06:59;;;;;;;9.80;7.90;;;;;;;;;;112541;209;39045;-36
2023/09/30 10:09:39;;;;;;;10.30;7.60;;;;;;;;;;112572;209;39629;-36
2023/09/30 10:12:18;;;;;;;9.10;7.30;;;;;;;;;;112556;210;42935;-36
2023/09/30 10:14:58;;;;;;;8.80;7.60;;;;;;;;;;112574;210;42351;-36
2023/09/30 10:18:00;;;;;;;9.00;7.00;;;;;;;;;;112473;209;175273;-36
2023/09/30 10:20:38;;;;;;;9.20;7.00;;;;;;;;;;112450;209;175498;-36
2023/09/30 10:23:32;;;;;;;8.70;7.10;;;;;;;;;;112592;210;44413;-36
2023/09/30 10:26:23;;;;;;;8.00;6.90;;;;;;;;;;112596;209;42001;-36
2023/09/30 10:29:11;;;;;;;8.50;6.90;;;;;;;;;;112545;210;44617;-36
2023/09/30 10:31:56;;;;;;;8.10;6.70;;;;;;;;;;112597;209;39943;-36
2023/09/30 10:34:31;;;;;;;8.70;6.60;;;;;;;;;;112595;210;43190;-36
2023/09/30 10:37:25;;;;;;;9.40;6.10;;;;;;;;;;112580;209;42162;-36
2023/09/30 10:40:03;;;;;;;7.80;6.20;;;;;;;;;;112593;210;38413;-36
2023/09/30 10:42:55;;;;;;;6.90;6.00;;;;;;;;;;112594;209;39699;-36
2023/09/30 10:45:52;;;;;;;7.80;5.70;;;;;;;;;;112057;209;635410;-36
2023/09/30 10:48:41;;;;;;;6.80;5.40;;;;;;;;;;112467;210;42739;-36
2023/09/30 10:51:23;;;;;;;6.60;5.00;;;;;;;;;;112627;209;38702;-36
2023/09/30 10:54:00;;;;;;;6.30;5.20;;;;;;;;;;112573;209;39872;-36
2023/09/30 10:56:38;;;;;;;7.30;5.40;;;;;;;;;;112602;209;42547;-36
2023/09/30 10:59:20;;;;;;;6.30;4.80;;;;;;;;;;112434;209;175504;-36
2023/09/30 11:01:57;;;;;;;6.30;4.70;;;;;;;;;;112632;210;39062;-36
2023/09/30 11:04:33;;;;;;;6.20;4.60;;;;;;;;;;112577;209;39747;-36
2023/09/30 11:07:08;;;;;;;6.10;4.30;;;;;;;;;;112587;210;43125;-36
2023/09/30 11:09:44;;;;;;;5.70;4.40;;;;;;;;;;112580;209;42351;-36
2023/09/30 11:12:18;;;;;;;6.10;4.20;;;;;;;;;;112623;210;38836;-36
2023/09/30 11:15:04;;;;;;;6.20;3.90;;;;;;;;;;112606;210;39877;-36
2023/09/30 11:17:44;;;;;;;5.80;3.90;;;;;;;;;;112593;209;42968;-36
2023/09/30 11:20:24;;;;;;;5.00;3.50;;;;;;;;;;112590;210;48293;-36
2023/09/30 11:23:00;;;;;;;5.30;3.40;;;;;;;;;;112602;210;38729;-36
2023/09/30 11:25:41;;;;;;;5.30;3.40;;;;;;;;;;111917;210;910755;-37
2023/09/30 11:28:23;;;;;;;5.40;3.60;;;;;;;;;;112580;209;42949;-36
2023/09/30 11:31:06;;;;;;;5.40;3.20;;;;;;;;;;112566;210;42163;-36
2023/09/30 11:33:53;;;;;;;5.40;3.20;;;;;;;;;;112535;210;39010;-36
2023/09/30 11:36:32;;;;;;;4.80;2.90;;;;;;;;;;112525;210;40845;-36
2023/09/30 11:39:09;;;;;;;4.90;3.20;;;;;;;;;;112475;209;42497;-36
2023/09/30 11:41:45;;;;;;;5.20;3.20;;;;;;;;;;112412;210;42077;-36
2023/09/30 11:44:19;;;;;;;5.30;2.80;;;;;;;;;;112509;210;40235;-36
2023/09/30 11:47:00;;;;;;;6.00;3.00;;;;;;;;;;112490;210;40930;-36
2023/09/30 11:49:38;;;;;;;4.60;2.70;;;;;;;;;;112439;209;42886;-36
2023/09/30 11:52:16;;;;;;;5.20;2.80;;;;;;;;;;112529;210;43627;-36
2023/09/30 11:54:53;;;;;;;4.50;2.50;;;;;;;;;;112529;210;39894;-37
2023/09/30 11:57:34;;;;;;;5.10;2.70;;;;;;;;;;112568;210;39593;-36
2023/09/30 12:00:18;;;;;;;5.60;2.70;;;;;;;;;;112535;209;42968;-36
2023/09/30 12:02:54;;;;;;;4.40;2.30;;;;;;;;;;112549;210;42335;-36
2023/09/30 12:05:33;;;;;;;4.50;2.50;;;;;;;;;;112568;210;38915;-36
2023/09/30 12:08:13;;;;;;;5.30;2.40;;;;;;;;;;112552;210;39648;-36
2023/09/30 12:10:51;;;;;;;4.20;2.30;;;;;;;;;;112520;209;42967;-36
2023/09/30 12:13:26;;;;;;;4.80;2.10;;;;;;;;;;112549;210;41997;-36
2023/09/30 12:16:04;;;;;;;4.80;2.20;;;;;;;;;;112549;210;38827;-36
2023/09/30 12:18:40;;;;;;;5.00;2.30;;;;;;;;;;112581;210;39683;-36
2023/09/30 12:21:19;;;;;;;4.90;2.30;;;;;;;;;;112500;209;43106;-36
2023/09/30 12:23:56;;;;;;;5.40;2.40;;;;;;;;;;112576;210;42380;-36
2023/09/30 12:26:30;;;;;;;4.20;2.20;;;;;;;;;;112440;210;175591;-36
2023/09/30 12:29:09;;;;;;;4.50;2.10;;;;;;;;;;112552;210;39619;-36
2023/09/30 12:31:43;;;;;;;4.80;2.20;;;;;;;;;;112496;210;48442;-36
2023/09/30 12:34:33;;;;;;;5.00;2.20;;;;;;;;;;112559;210;42213;-36
2023/09/30 12:37:08;;;;;;;5.00;2.30;;;;;;;;;;112561;210;38725;-36
2023/09/30 12:39:44;;;;;;;5.40;2.10;;;;;;;;;;112498;209;39540;-36
2023/09/30 12:42:21;;;;;;;4.60;2.00;;;;;;;;;;112524;210;43018;-36
2023/09/30 12:44:57;;;;;;;4.80;2.20;;;;;;;;;;112547;210;42249;-36
2023/09/30 12:47:34;;;;;;;5.60;2.10;;;;;;;;;;112620;210;38700;-36
2023/09/30 12:50:11;;;;;;;4.80;2.00;;;;;;;;;;112562;209;39548;-36
2023/09/30 12:52:46;;;;;;;4.70;2.00;;;;;;;;;;112597;210;42944;-36
2023/09/30 12:55:24;;;;;;;4.70;2.10;;;;;;;;;;112583;210;42000;-36
2023/09/30 12:58:02;;;;;;;5.00;1.90;;;;;;;;;;112589;210;39058;-36
2023/09/30 13:00:37;;;;;;;4.60;1.90;;;;;;;;;;112525;209;39579;-36
2023/09/30 13:03:16;;;;;;;4.80;2.10;;;;;;;;;;112593;210;42824;-37
2023/09/30 13:05:51;;;;;;;4.40;1.80;;;;;;;;;;112585;210;41954;-36
2023/09/30 13:08:25;;;;;;;4.30;1.80;;;;;;;;;;112577;210;38668;-36
2023/09/30 13:11:02;;;;;;;5.70;1.90;;;;;;;;;;112571;209;39568;-36
2023/09/30 13:13:37;;;;;;;5.30;2.00;;;;;;;;;;112610;210;42976;-36
2023/09/30 13:16:14;;;;;;;4.10;1.70;;;;;;;;;;112601;210;42056;-36
2023/09/30 13:18:52;;;;;;;4.10;1.70;;;;;;;;;;112609;210;38938;-36
2023/09/30 13:21:27;;;;;;;4.30;1.80;;;;;;;;;;112568;209;39948;-36
2023/09/30 13:24:02;;;;;;;3.50;1.50;;;;;;;;;;112623;210;43119;-36
2023/09/30 13:26:36;;;;;;;4.00;1.80;;;;;;;;;;112578;210;42254;-36
2023/09/30 13:29:11;;;;;;;4.50;1.80;;;;;;;;;;112605;210;38621;-36
2023/09/30 13:31:46;;;;;;;4.30;1.90;;;;;;;;;;112524;209;39843;-36
2023/09/30 13:34:24;;;;;;;5.30;1.70;;;;;;;;;;112554;210;43336;-36
2023/09/30 13:37:01;;;;;;;4.70;1.70;;;;;;;;;;112576;210;42142;-36
2023/09/30 13:39:42;;;;;;;4.20;1.50;;;;;;;;;;112574;210;38771;-36
2023/09/30 13:42:17;;;;;;;4.10;1.60;;;;;;;;;;112540;209;39591;-36
2023/09/30 13:44:54;;;;;;;4.50;1.60;;;;;;;;;;112546;210;42907;-36
2023/09/30 13:47:31;;;;;;;4.40;1.60;;;;;;;;;;112576;210;42157;-36
2023/09/30 13:50:08;;;;;;;4.70;1.60;;;;;;;;;;112559;210;39011;-36
2023/09/30 13:52:45;;;;;;;3.80;1.50;;;;;;;;;;112530;209;39885;-36
2023/09/30 13:55:21;;;;;;;4.40;1.60;;;;;;;;;;112513;209;42743;-36
2023/09/30 13:57:55;;;;;;;4.10;1.40;;;;;;;;;;112571;210;42205;-36
2023/09/30 14:00:31;;;;;;;3.90;1.40;;;;;;;;;;112546;210;38498;-36
2023/09/30 14:03:11;;;;;;;4.50;1.60;;;;;;;;;;112528;209;40877;-36
2023/09/30 14:05:46;;;;;;;4.50;1.60;;;;;;;;;;112561;210;42812;-36
2023/09/30 14:08:35;;;;;;;4.00;1.40;;;;;;;;;;112585;210;42329;-37
2023/09/30 14:11:11;;;;;;;4.40;1.60;;;;;;;;;;112609;210;38761;-36
2023/09/30 14:13:46;;;;;;;3.70;1.20;;;;;;;;;;112560;209;47443;-36
2023/09/30 14:16:21;;;;;;;4.10;1.40;;;;;;;;;;112586;210;42732;-36
2023/09/30 14:18:57;;;;;;;4.80;1.40;;;;;;;;;;112593;209;42139;-36
2023/09/30 14:21:36;;;;;;;4.30;1.60;;;;;;;;;;111798;209;893651;-36
2023/09/30 14:24:11;;;;;;;5.00;1.60;;;;;;;;;;112606;210;46903;-36
2023/09/30 14:26:51;;;;;;;5.10;1.60;;;;;;;;;;112612;210;42494;-36
2023/09/30 14:29:28;;;;;;;4.90;1.70;;;;;;;;;;112624;209;42087;-36
2023/09/30 14:32:06;;;;;;;4.50;1.70;;;;;;;;;;112571;209;39100;-36
2023/09/30 14:34:42;;;;;;;4.40;1.60;;;;;;;;;;112647;210;39588;-36
2023/09/30 14:37:19;;;;;;;5.30;1.50;;;;;;;;;;112623;210;43155;-36
2023/09/30 14:39:59;;;;;;;4.90;1.80;;;;;;;;;;112587;210;41979;-36
2023/09/30 14:42:38;;;;;;;4.60;1.60;;;;;;;;;;112588;209;38845;-36
2023/09/30 14:45:16;;;;;;;4.30;1.50;;;;;;;;;;112596;210;39792;-36
2023/09/30 14:47:50;;;;;;;4.60;1.60;;;;;;;;;;112577;210;43336;-36
2023/09/30 14:50:24;;;;;;;4.70;1.50;;;;;;;;;;112650;209;43285;-36
2023/09/30 14:53:00;;;;;;;5.20;1.80;;;;;;;;;;112601;209;38680;-36
2023/09/30 14:55:40;;;;;;;4.40;1.80;;;;;;;;;;112626;209;39722;-37
2023/09/30 14:58:15;;;;;;;5.30;1.70;;;;;;;;;;112624;210;42841;-36
2023/09/30 15:00:54;;;;;;;4.40;1.50;;;;;;;;;;112607;209;42369;-36
2023/09/30 15:03:29;;;;;;;4.70;1.50;;;;;;;;;;112602;209;39114;-36
2023/09/30 15:06:09;;;;;;;4.50;1.70;;;;;;;;;;112631;209;39714;-36
2023/09/30 15:08:45;;;;;;;4.20;1.50;;;;;;;;;;112628;209;42736;-36
2023/09/30 15:11:19;;;;;;;4.90;1.60;;;;;;;;;;112662;209;42138;-36
2023/09/30 15:13:57;;;;;;;5.00;1.70;;;;;;;;;;112583;209;38567;-36
2023/09/30 15:16:31;;;;;;;4.70;1.50;;;;;;;;;;112631;209;39811;-36
2023/09/30 15:19:12;;;;;;;3.90;1.50;;;;;;;;;;112625;209;44187;-36
2023/09/30 15:21:46;;;;;;;4.00;1.50;;;;;;;;;;112668;209;42218;-36
2023/09/30 15:24:24;;;;;;;4.40;1.60;;;;;;;;;;112612;209;40144;-36
2023/09/30 15:27:02;;;;;;;4.00;1.50;;;;;;;;;;112557;209;39488;-36
2023/09/30 15:29:36;;;;;;;4.30;1.40;;;;;;;;;;112624;209;42969;-36
2023/09/30 15:32:16;;;;;;;4.60;1.50;;;;;;;;;;112575;210;42058;-36
2023/09/30 15:34:51;;;;;;;4.00;1.50;;;;;;;;;;112494;209;38829;-36
2023/09/30 15:37:27;;;;;;;4.70;1.60;;;;;;;;;;112542;210;39618;-36
2023/09/30 15:40:03;;;;;;;4.80;1.60;;;;;;;;;;112556;210;42969;-36
2023/09/30 15:42:38;;;;;;;3.60;1.30;;;;;;;;;;112544;210;42031;-36